Time;durP1;ratioP1;P1;durP2;ratioP2;P2;SDS_P1;SDS_P2;PMS_P1;PMS_P2;Temp;Humidity;BMP_temperature;BMP_pressure;BME280_temperature;BME280_humidity;BME280_pressure;Samples;Min_cycle;Max_cycle;Signal;HPM_P1;HPM_P2
2023/05/27 00:02:08;;;;;;;4.18;1.65;;;9.90;99.90;;;;;;5086279;28;20031;-60
2023/05/27 00:04:35;;;;;;;5.78;1.80;;;10.00;99.90;;;;;;5075163;28;20020;-60
2023/05/27 00:07:03;;;;;;;8.30;2.05;;;10.10;99.90;;;;;;5055175;28;20028;-60
2023/05/27 00:09:30;;;;;;;6.15;2.00;;;10.20;99.90;;;;;;5078944;28;20012;-60
2023/05/27 00:11:58;;;;;;;8.82;1.75;;;10.30;99.90;;;;;;5081689;28;20028;-60
2023/05/27 00:14:26;;;;;;;2.22;1.30;;;10.40;99.90;;;;;;5076882;28;20016;-61
2023/05/27 00:16:54;;;;;;;3.67;1.55;;;10.60;99.90;;;;;;5072262;28;20036;-60
2023/05/27 00:19:23;;;;;;;4.80;1.48;;;10.70;99.90;;;;;;5075106;28;20103;-60
2023/05/27 00:21:54;;;;;;;3.72;1.40;;;10.80;99.90;;;;;;5057590;28;20064;-60
2023/05/27 00:24:22;;;;;;;6.65;1.55;;;11.00;99.90;;;;;;5083972;28;20024;-60
2023/05/27 00:26:50;;;;;;;3.92;1.55;;;11.10;99.90;;;;;;5075663;28;20029;-60
2023/05/27 00:29:18;;;;;;;3.80;1.80;;;11.30;99.90;;;;;;5078872;28;20012;-61
2023/05/27 00:31:46;;;;;;;4.93;1.80;;;11.40;99.90;;;;;;5055314;28;20032;-61
2023/05/27 00:34:13;;;;;;;2.95;1.58;;;11.50;99.90;;;;;;5074588;28;20020;-61
2023/05/27 00:36:41;;;;;;;3.80;1.45;;;11.50;99.90;;;;;;5079730;28;20400;-61
2023/05/27 00:39:08;;;;;;;8.73;1.50;;;11.60;99.90;;;;;;5080447;28;20043;-62
2023/05/27 00:41:36;;;;;;;3.63;1.50;;;11.80;99.90;;;;;;5072940;28;20485;-61
2023/05/27 00:44:04;;;;;;;4.60;1.63;;;11.90;99.90;;;;;;5074708;28;20025;-61
2023/05/27 00:46:31;;;;;;;3.97;1.50;;;12.00;99.90;;;;;;5080669;28;20024;-61
2023/05/27 00:48:59;;;;;;;3.15;1.17;;;12.20;99.90;;;;;;5074263;28;20176;-61
2023/05/27 00:51:26;;;;;;;2.78;1.20;;;12.30;99.90;;;;;;5079726;28;20519;-61
2023/05/27 00:53:54;;;;;;;5.38;1.33;;;12.40;99.90;;;;;;5057833;28;20036;-58
2023/05/27 00:56:21;;;;;;;3.72;1.30;;;12.60;99.90;;;;;;5074507;28;20075;-55
2023/05/27 00:58:49;;;;;;;2.78;1.20;;;12.70;99.90;;;;;;5079299;28;20016;-59
2023/05/27 01:01:17;;;;;;;3.53;1.27;;;12.80;99.90;;;;;;5078449;28;20028;-58
2023/05/27 01:03:44;;;;;;;3.80;1.42;;;12.90;99.90;;;;;;5054180;28;20028;-61
2023/05/27 01:06:36;;;;;;;2.92;1.10;;;13.00;99.90;;;;;;5072194;28;20032;-64
2023/05/27 01:09:45;;;;;;;4.30;1.27;;;13.20;99.90;;;;;;5056663;28;20388;-63
2023/05/27 01:12:27;;;;;;;3.03;1.35;;;13.40;99.90;;;;;;4993197;28;20129;-63
2023/05/27 01:14:57;;;;;;;7.03;1.92;;;13.50;99.90;;;;;;5071096;28;20404;-62
2023/05/27 01:17:27;;;;;;;7.75;1.40;;;13.70;99.90;;;;;;5075863;28;20052;-60
2023/05/27 01:19:56;;;;;;;3.33;0.95;;;13.80;99.90;;;;;;5074939;28;20480;-58
2023/05/27 01:22:28;;;;;;;3.42;1.00;;;13.90;99.90;;;;;;5086234;28;20035;-55
2023/05/27 01:24:56;;;;;;;6.65;2.05;;;14.00;99.90;;;;;;5083838;28;20025;-59
2023/05/27 01:27:26;;;;;;;4.65;1.23;;;14.00;99.90;;;;;;5069457;28;20025;-59
2023/05/27 01:29:56;;;;;;;6.25;1.30;;;14.20;99.90;;;;;;5070542;28;20103;-59
2023/05/27 01:32:58;;;;;;;2.10;1.55;;;14.30;99.90;;;;;;5070354;28;20112;-59
2023/05/27 01:35:31;;;;;;;3.90;1.20;;;14.40;99.90;;;;;;4998488;28;20030;-59
2023/05/27 01:38:05;;;;;;;10.23;1.90;;;14.60;99.90;;;;;;5071787;28;20052;-59
2023/05/27 01:40:34;;;;;;;7.60;1.38;;;14.70;99.90;;;;;;5077175;28;20066;-58
2023/05/27 01:43:02;;;;;;;3.70;0.90;;;14.80;99.90;;;;;;5078543;28;20035;-58
2023/05/27 01:45:30;;;;;;;3.03;0.80;;;15.00;99.90;;;;;;5085217;28;20020;-55
2023/05/27 01:47:57;;;;;;;3.83;0.75;;;14.90;99.80;;;;;;5070945;28;20028;-58
2023/05/27 01:50:25;;;;;;;12.57;1.25;;;15.00;99.90;;;;;;5083973;28;20025;-57
2023/05/27 01:52:52;;;;;;;2.08;0.52;;;15.00;99.90;;;;;;5070924;28;20127;-58
2023/05/27 01:55:20;;;;;;;3.92;0.90;;;15.10;99.10;;;;;;5056626;28;20754;-56
2023/05/27 01:57:47;;;;;;;5.03;0.93;;;15.20;99.00;;;;;;5083431;28;20453;-58
2023/05/27 02:00:15;;;;;;;4.78;0.98;;;15.40;99.40;;;;;;5064528;28;20016;-52
2023/05/27 02:02:43;;;;;;;3.10;0.80;;;15.50;97.10;;;;;;5079563;28;20024;-61
2023/05/27 02:05:10;;;;;;;2.45;0.50;;;15.60;95.20;;;;;;5076845;28;20538;-59
2023/05/27 02:07:38;;;;;;;4.70;0.82;;;15.60;94.00;;;;;;5078930;28;20028;-62
2023/05/27 02:10:06;;;;;;;2.60;0.82;;;15.50;93.50;;;;;;5076469;28;20154;-59
2023/05/27 02:12:34;;;;;;;2.47;0.82;;;15.50;92.80;;;;;;5078203;28;20048;-59
2023/05/27 02:15:01;;;;;;;1.30;0.50;;;15.60;93.30;;;;;;5075249;28;20047;-59
2023/05/27 02:17:29;;;;;;;6.85;1.83;;;15.70;84.10;;;;;;5073383;28;20097;-59
2023/05/27 02:19:56;;;;;;;1.92;0.55;;;15.70;88.80;;;;;;5070526;28;20021;-59
2023/05/27 02:22:24;;;;;;;0.95;0.50;;;15.80;88.90;;;;;;5077257;28;20107;-59
2023/05/27 02:24:51;;;;;;;2.45;0.75;;;15.90;90.00;;;;;;5086094;28;20020;-59
2023/05/27 02:27:19;;;;;;;3.50;0.60;;;16.00;91.00;;;;;;5081869;28;20032;-60
2023/05/27 02:29:46;;;;;;;7.10;0.95;;;16.10;91.00;;;;;;5071529;28;20456;-59
2023/05/27 02:32:14;;;;;;;2.33;0.63;;;16.10;85.10;;;;;;5073405;28;20036;-59
2023/05/27 02:34:41;;;;;;;4.30;0.80;;;16.30;81.20;;;;;;5084656;28;20567;-59
2023/05/27 02:37:09;;;;;;;3.90;0.55;;;16.30;84.10;;;;;;5086489;28;20043;-59
2023/05/27 02:39:37;;;;;;;3.58;0.77;;;16.40;80.70;;;;;;5086609;28;20028;-60
2023/05/27 02:42:05;;;;;;;2.72;0.73;;;16.40;84.70;;;;;;5084482;28;20454;-61
2023/05/27 02:44:32;;;;;;;4.05;0.80;;;16.50;82.30;;;;;;5055544;28;20389;-59
2023/05/27 02:47:00;;;;;;;1.95;0.80;;;16.60;80.30;;;;;;5060037;28;20143;-59
2023/05/27 02:49:27;;;;;;;4.35;0.73;;;16.60;80.00;;;;;;5085790;28;20081;-60
2023/05/27 02:51:55;;;;;;;5.78;0.60;;;16.60;77.80;;;;;;5083730;28;20060;-60
2023/05/27 02:54:22;;;;;;;1.60;0.68;;;16.60;77.40;;;;;;5065718;28;20499;-59
2023/05/27 02:56:50;;;;;;;1.55;0.70;;;16.60;78.50;;;;;;5070026;28;20105;-59
2023/05/27 02:59:17;;;;;;;3.92;0.50;;;16.40;76.70;;;;;;5061109;28;20456;-59
2023/05/27 03:01:45;;;;;;;8.50;0.88;;;16.40;78.70;;;;;;5083663;28;20024;-59
2023/05/27 03:04:12;;;;;;;1.20;0.50;;;16.40;77.30;;;;;;5078918;28;20387;-58
2023/05/27 03:06:40;;;;;;;1.95;0.60;;;16.30;79.40;;;;;;5068038;28;20481;-60
2023/05/27 03:09:08;;;;;;;1.55;0.52;;;16.20;78.10;;;;;;5071639;28;20111;-60
2023/05/27 03:11:35;;;;;;;1.05;0.43;;;16.20;80.00;;;;;;5084135;28;20032;-61
2023/05/27 03:14:03;;;;;;;4.65;0.60;;;16.30;80.60;;;;;;5078428;28;20507;-59
2023/05/27 03:16:31;;;;;;;2.33;0.63;;;16.40;81.70;;;;;;5074950;28;20040;-60
2023/05/27 03:18:58;;;;;;;1.67;0.60;;;16.40;82.80;;;;;;5076143;28;20023;-59
2023/05/27 03:21:27;;;;;;;2.63;0.45;;;16.60;80.10;;;;;;5057837;28;20123;-58
2023/05/27 03:23:54;;;;;;;2.22;0.82;;;16.60;78.40;;;;;;5076645;28;20028;-58
2023/05/27 03:26:22;;;;;;;1.58;0.40;;;16.70;77.70;;;;;;5067059;28;20024;-58
2023/05/27 03:28:49;;;;;;;1.00;0.50;;;16.70;78.90;;;;;;5105561;28;20031;-58
2023/05/27 03:31:18;;;;;;;3.55;0.75;;;16.90;77.70;;;;;;5078804;28;20039;-59
2023/05/27 03:33:45;;;;;;;2.58;0.70;;;17.00;77.90;;;;;;5087431;28;20024;-58
2023/05/27 03:36:12;;;;;;;1.15;0.40;;;16.90;76.90;;;;;;5084657;28;20048;-58
2023/05/27 03:38:40;;;;;;;1.52;0.60;;;16.90;76.40;;;;;;5060426;28;20032;-59
2023/05/27 03:41:07;;;;;;;0.77;0.32;;;17.00;76.30;;;;;;5071635;28;20127;-58
2023/05/27 03:43:35;;;;;;;2.58;0.65;;;16.90;76.00;;;;;;5069919;28;20043;-58
2023/05/27 03:46:02;;;;;;;5.25;1.20;;;16.90;76.00;;;;;;5048132;28;20074;-57
2023/05/27 03:48:30;;;;;;;3.60;0.70;;;17.00;78.80;;;;;;5077134;28;20406;-56
2023/05/27 03:50:57;;;;;;;2.30;0.45;;;17.10;76.20;;;;;;5064763;28;20036;-55
2023/05/27 03:53:25;;;;;;;2.83;0.68;;;17.10;75.70;;;;;;5074161;28;20048;-61
2023/05/27 03:55:52;;;;;;;1.50;0.50;;;17.20;77.70;;;;;;5077197;28;20046;-60
2023/05/27 03:58:20;;;;;;;5.15;0.60;;;17.20;76.00;;;;;;5074271;28;20024;-56
2023/05/27 04:00:47;;;;;;;1.80;0.40;;;17.10;73.30;;;;;;5052471;28;20120;-60
2023/05/27 04:03:15;;;;;;;1.52;0.32;;;17.10;74.70;;;;;;5070946;28;20439;-59
2023/05/27 04:05:42;;;;;;;1.50;0.50;;;17.10;73.50;;;;;;5070240;28;20056;-60
2023/05/27 04:08:13;;;;;;;2.15;0.50;;;17.10;75.20;;;;;;5078610;28;20038;-58
2023/05/27 04:10:41;;;;;;;0.88;0.40;;;17.00;75.50;;;;;;5075911;28;20507;-58
2023/05/27 04:13:08;;;;;;;0.80;0.38;;;17.00;75.80;;;;;;5081780;28;20392;-59
2023/05/27 04:15:36;;;;;;;2.63;0.70;;;17.00;77.50;;;;;;5079036;28;20027;-59
2023/05/27 04:18:03;;;;;;;2.10;0.28;;;17.00;78.20;;;;;;5063032;28;20554;-60
2023/05/27 04:20:42;;;;;;;0.93;0.60;;;16.90;77.70;;;;;;5083556;28;20028;-58
2023/05/27 04:23:10;;;;;;;3.13;0.40;;;17.00;78.70;;;;;;5078850;28;20024;-59
2023/05/27 04:25:39;;;;;;;1.38;0.30;;;17.10;77.30;;;;;;5077113;28;20048;-60
2023/05/27 04:28:09;;;;;;;0.80;0.40;;;17.10;76.60;;;;;;5078293;28;20893;-59
2023/05/27 04:30:39;;;;;;;1.58;0.35;;;17.00;79.00;;;;;;5072252;28;20103;-56
2023/05/27 04:33:07;;;;;;;1.65;0.43;;;17.00;78.90;;;;;;5058386;28;20067;-58
2023/05/27 04:35:35;;;;;;;3.05;0.60;;;16.90;77.30;;;;;;5059480;28;20025;-60
2023/05/27 04:38:02;;;;;;;2.25;0.60;;;16.80;77.50;;;;;;5073819;28;20062;-60
2023/05/27 04:40:31;;;;;;;0.65;0.40;;;16.70;81.00;;;;;;5075063;28;20017;-60
2023/05/27 04:42:58;;;;;;;2.97;0.85;;;16.60;81.30;;;;;;5076903;28;20031;-60
2023/05/27 04:45:26;;;;;;;2.45;0.93;;;16.50;83.10;;;;;;5078345;28;20481;-61
2023/05/27 04:47:55;;;;;;;1.75;0.47;;;16.50;86.40;;;;;;5074581;28;20028;-58
2023/05/27 04:50:23;;;;;;;3.15;0.85;;;16.60;88.80;;;;;;5075641;28;20036;-58
2023/05/27 04:52:51;;;;;;;2.13;0.60;;;16.50;89.00;;;;;;5056737;28;20075;-56
2023/05/27 04:55:18;;;;;;;2.53;0.43;;;16.40;90.30;;;;;;5058201;28;20032;-58
2023/05/27 04:57:46;;;;;;;3.90;0.70;;;16.40;90.10;;;;;;5074802;28;20069;-59
2023/05/27 05:00:35;;;;;;;3.55;0.50;;;16.30;90.10;;;;;;5069075;28;20021;-58
2023/05/27 05:03:01;;;;;;;1.30;0.57;;;16.20;90.40;;;;;;5083571;28;20036;-59
2023/05/27 05:05:28;;;;;;;1.80;0.73;;;16.10;91.10;;;;;;5091948;28;20559;-60
2023/05/27 05:07:56;;;;;;;1.25;0.32;;;16.10;90.90;;;;;;5078978;28;20074;-59
2023/05/27 05:10:23;;;;;;;2.65;0.30;;;16.00;91.00;;;;;;5086070;28;20035;-59
2023/05/27 05:12:51;;;;;;;2.35;0.40;;;15.90;91.20;;;;;;5078373;28;20039;-59
2023/05/27 05:15:19;;;;;;;0.85;0.47;;;15.90;91.00;;;;;;5070023;28;20515;-58
2023/05/27 05:17:46;;;;;;;0.77;0.30;;;15.80;91.70;;;;;;5071054;28;20040;-59
2023/05/27 05:20:14;;;;;;;1.33;0.52;;;15.70;91.50;;;;;;5071881;28;20021;-59
2023/05/27 05:22:41;;;;;;;1.48;0.60;;;15.60;91.70;;;;;;5077503;28;20448;-58
2023/05/27 05:25:09;;;;;;;3.53;0.90;;;15.50;92.30;;;;;;5071047;28;20025;-61
2023/05/27 05:27:36;;;;;;;1.88;0.30;;;15.50;92.00;;;;;;5067643;28;20024;-58
2023/05/27 05:30:05;;;;;;;2.80;0.88;;;15.40;93.00;;;;;;5048088;28;20568;-55
2023/05/27 05:32:33;;;;;;;1.25;0.50;;;15.40;93.00;;;;;;5067293;28;20095;-54
2023/05/27 05:35:00;;;;;;;1.05;0.30;;;15.30;92.80;;;;;;5078530;28;20028;-53
2023/05/27 05:37:27;;;;;;;3.60;0.30;;;15.20;93.70;;;;;;5083147;28;20867;-56
2023/05/27 05:39:56;;;;;;;1.10;0.55;;;15.20;92.80;;;;;;5067679;28;20052;-52
2023/05/27 05:42:24;;;;;;;0.85;0.40;;;15.00;92.90;;;;;;5067951;28;20036;-52
2023/05/27 05:44:53;;;;;;;1.45;0.40;;;14.90;93.50;;;;;;5064813;28;20032;-55
2023/05/27 05:47:20;;;;;;;0.95;0.30;;;14.80;94.30;;;;;;5065120;28;20032;-52
2023/05/27 05:49:48;;;;;;;1.55;0.40;;;14.50;94.00;;;;;;5075365;28;20024;-53
2023/05/27 05:52:15;;;;;;;1.60;0.30;;;14.40;94.30;;;;;;5087643;28;20040;-52
2023/05/27 05:54:43;;;;;;;2.38;0.20;;;14.20;95.10;;;;;;5087843;28;20028;-55
2023/05/27 05:57:10;;;;;;;0.20;0.20;;;14.10;95.90;;;;;;5080493;28;20035;-59
2023/05/27 05:59:38;;;;;;;0.95;0.30;;;14.00;96.90;;;;;;5069772;28;20024;-59
2023/05/27 06:02:06;;;;;;;0.65;0.30;;;13.90;97.40;;;;;;5076605;28;20059;-60
2023/05/27 06:04:33;;;;;;;2.85;0.30;;;13.80;97.80;;;;;;5072496;28;20523;-59
2023/05/27 06:07:01;;;;;;;0.82;0.25;;;13.70;98.00;;;;;;5079619;28;20028;-59
2023/05/27 06:09:28;;;;;;;1.45;0.30;;;13.70;98.60;;;;;;5074266;28;20955;-59
2023/05/27 06:11:56;;;;;;;0.32;0.22;;;13.70;98.50;;;;;;5076320;28;20023;-61
2023/05/27 06:14:23;;;;;;;0.98;0.38;;;13.70;98.70;;;;;;5062339;28;20055;-59
2023/05/27 06:16:51;;;;;;;0.52;0.30;;;13.60;98.40;;;;;;5089659;28;20039;-59
2023/05/27 06:19:18;;;;;;;0.60;0.30;;;13.60;98.50;;;;;;5058700;28;20362;-59
2023/05/27 06:21:45;;;;;;;1.80;0.60;;;13.60;98.70;;;;;;5077208;28;20063;-58
2023/05/27 06:24:13;;;;;;;1.38;0.57;;;13.60;98.60;;;;;;5069349;28;20040;-59
2023/05/27 06:26:40;;;;;;;2.08;0.50;;;13.50;98.80;;;;;;5073254;28;20012;-58
2023/05/27 06:29:08;;;;;;;1.30;0.60;;;13.50;98.80;;;;;;5052109;28;20028;-59
2023/05/27 06:31:35;;;;;;;5.97;1.10;;;13.40;98.90;;;;;;5069772;28;20481;-59
2023/05/27 06:34:03;;;;;;;2.08;0.77;;;13.40;99.00;;;;;;5060376;28;20077;-60
2023/05/27 06:36:30;;;;;;;5.82;1.23;;;13.30;99.90;;;;;;5072556;28;20047;-59
2023/05/27 06:38:59;;;;;;;2.15;0.80;;;13.20;99.90;;;;;;5072252;28;20428;-59
2023/05/27 06:41:26;;;;;;;1.88;0.80;;;13.10;99.90;;;;;;5069468;28;20036;-59
2023/05/27 06:43:54;;;;;;;1.90;0.65;;;13.10;99.90;;;;;;5070889;28;20549;-59
2023/05/27 06:46:22;;;;;;;0.55;0.40;;;13.00;99.90;;;;;;5073960;28;20028;-59
2023/05/27 06:48:50;;;;;;;3.25;0.75;;;12.90;99.90;;;;;;5077459;28;20030;-60
2023/05/27 06:51:17;;;;;;;2.45;0.50;;;12.80;99.90;;;;;;5068023;28;20024;-60
2023/05/27 06:53:44;;;;;;;1.02;0.50;;;12.80;99.90;;;;;;5073274;28;20532;-59
2023/05/27 06:56:12;;;;;;;1.80;0.47;;;12.60;99.90;;;;;;5079723;28;20409;-61
2023/05/27 06:58:40;;;;;;;1.58;0.40;;;12.50;99.90;;;;;;5075833;28;20028;-60
2023/05/27 07:01:08;;;;;;;2.10;0.35;;;12.40;99.90;;;;;;5079117;28;20035;-59
2023/05/27 07:03:35;;;;;;;2.67;0.47;;;12.20;99.90;;;;;;5075370;28;20032;-59
2023/05/27 07:06:03;;;;;;;1.23;0.40;;;12.10;99.90;;;;;;5088294;28;20128;-59
2023/05/27 07:08:30;;;;;;;1.45;0.45;;;11.90;99.90;;;;;;5075101;28;20073;-57
2023/05/27 07:10:58;;;;;;;1.23;0.38;;;11.80;99.90;;;;;;5082066;28;20385;-59
2023/05/27 07:13:25;;;;;;;1.55;0.40;;;11.70;99.90;;;;;;5078525;28;20527;-58
2023/05/27 07:15:53;;;;;;;0.20;0.20;;;11.60;99.90;;;;;;5069000;28;20029;-57
2023/05/27 07:18:20;;;;;;;0.60;0.47;;;11.50;99.90;;;;;;5068395;28;20031;-57
2023/05/27 07:20:48;;;;;;;1.40;0.40;;;11.40;99.90;;;;;;5053259;28;20087;-58
2023/05/27 07:23:16;;;;;;;0.70;0.30;;;11.30;99.90;;;;;;5067276;28;20020;-57
2023/05/27 07:25:43;;;;;;;1.98;0.55;;;11.20;99.90;;;;;;5067663;28;20016;-58
2023/05/27 07:28:11;;;;;;;0.38;0.25;;;11.10;99.90;;;;;;5066036;28;20108;-58
2023/05/27 07:30:38;;;;;;;2.55;0.40;;;11.00;99.90;;;;;;5066382;28;20099;-57
2023/05/27 07:33:06;;;;;;;1.20;0.40;;;10.90;99.90;;;;;;5059077;28;20120;-54
2023/05/27 07:35:33;;;;;;;0.95;0.50;;;10.80;99.90;;;;;;5064780;28;20500;-59
2023/05/27 07:38:02;;;;;;;1.45;0.60;;;10.60;99.90;;;;;;5078600;28;20047;-56
2023/05/27 07:40:30;;;;;;;1.08;0.60;;;10.50;99.90;;;;;;5086801;28;20719;-57
2023/05/27 07:42:57;;;;;;;2.00;1.15;;;10.40;99.90;;;;;;5071472;28;20085;-58
2023/05/27 07:45:24;;;;;;;1.35;0.60;;;10.30;99.90;;;;;;5074137;28;20070;-58
2023/05/27 07:47:52;;;;;;;2.72;0.90;;;10.20;99.90;;;;;;5082238;28;20102;-58
2023/05/27 07:50:20;;;;;;;2.90;0.95;;;10.20;99.90;;;;;;5076472;28;20047;-58
2023/05/27 07:52:47;;;;;;;2.72;1.08;;;10.10;99.90;;;;;;5065858;28;20059;-57
2023/05/27 07:55:15;;;;;;;3.75;1.10;;;10.00;99.90;;;;;;5081412;28;20032;-57
2023/05/27 07:57:43;;;;;;;1.77;0.70;;;9.90;99.90;;;;;;5078480;28;20122;-58
2023/05/27 08:00:11;;;;;;;1.48;0.73;;;9.90;99.90;;;;;;5075924;28;20020;-58
2023/05/27 08:02:39;;;;;;;3.78;0.75;;;10.00;99.90;;;;;;5056782;28;20024;-55
2023/05/27 08:05:07;;;;;;;3.17;0.63;;;9.90;99.90;;;;;;5083999;28;20036;-58
2023/05/27 08:07:34;;;;;;;4.88;1.35;;;9.90;99.90;;;;;;5081469;28;20036;-58
2023/05/27 08:10:01;;;;;;;4.63;0.80;;;9.90;99.90;;;;;;5054390;28;20115;-58
2023/05/27 08:12:29;;;;;;;2.63;1.25;;;9.80;99.90;;;;;;5076566;28;20028;-57
2023/05/27 08:14:56;;;;;;;8.40;1.27;;;9.80;99.90;;;;;;5083116;28;20092;-57
2023/05/27 08:17:24;;;;;;;15.25;1.13;;;9.60;99.90;;;;;;5086739;28;20384;-57
2023/05/27 08:19:51;;;;;;;13.80;1.27;;;9.50;99.90;;;;;;5075197;28;20485;-59
2023/05/27 08:22:19;;;;;;;13.85;2.10;;;9.40;99.90;;;;;;5077942;28;20064;-57
2023/05/27 08:24:48;;;;;;;17.88;1.67;;;9.20;99.90;;;;;;5077646;28;20092;-54
2023/05/27 08:27:18;;;;;;;9.40;0.98;;;9.10;99.90;;;;;;5079776;28;20033;-57
2023/05/27 08:29:45;;;;;;;7.15;1.02;;;9.00;99.90;;;;;;5079303;28;20027;-59
2023/05/27 08:32:13;;;;;;;2.35;1.00;;;8.90;99.90;;;;;;5076997;28;20124;-59
2023/05/27 08:34:41;;;;;;;6.93;1.00;;;8.80;99.90;;;;;;5058489;28;20024;-59
2023/05/27 08:37:08;;;;;;;3.40;1.20;;;8.60;99.90;;;;;;5077044;28;20755;-59
2023/05/27 08:39:36;;;;;;;3.03;1.00;;;8.50;99.90;;;;;;5073780;28;20021;-59
2023/05/27 08:42:04;;;;;;;4.90;1.00;;;8.40;99.90;;;;;;5072420;28;20023;-59
2023/05/27 08:44:31;;;;;;;5.68;2.30;;;8.40;99.90;;;;;;5068428;28;20028;-58
2023/05/27 08:47:00;;;;;;;2.70;1.25;;;8.40;99.90;;;;;;5062587;28;20322;-59
2023/05/27 08:49:27;;;;;;;5.50;1.30;;;8.30;99.90;;;;;;5075012;28;20020;-60
2023/05/27 08:51:56;;;;;;;4.93;2.10;;;8.30;99.90;;;;;;5058284;28;20131;-56
2023/05/27 08:54:24;;;;;;;2.95;1.40;;;8.20;99.90;;;;;;5077531;28;20024;-51
2023/05/27 08:56:57;;;;;;;3.20;1.42;;;8.10;99.90;;;;;;5080606;28;20035;-51
2023/05/27 08:59:25;;;;;;;5.60;1.73;;;8.00;99.90;;;;;;5053492;28;20032;-58
2023/05/27 09:01:55;;;;;;;4.38;1.88;;;7.90;99.90;;;;;;5083752;28;20563;-59
2023/05/27 09:04:22;;;;;;;3.22;1.60;;;7.80;99.90;;;;;;5074387;28;20095;-59
2023/05/27 09:06:50;;;;;;;3.22;1.50;;;7.60;99.90;;;;;;5082237;28;20401;-57
2023/05/27 09:09:20;;;;;;;4.75;1.50;;;7.50;99.90;;;;;;5073410;28;20208;-60
2023/05/27 09:11:47;;;;;;;4.03;1.33;;;7.30;99.90;;;;;;5072044;28;20208;-58
2023/05/27 09:14:24;;;;;;;3.28;1.33;;;7.20;99.90;;;;;;5072243;28;20472;-59
2023/05/27 09:16:51;;;;;;;3.47;1.40;;;7.10;99.90;;;;;;5068238;28;20064;-55
2023/05/27 09:19:22;;;;;;;7.15;1.40;;;6.90;99.90;;;;;;5075035;28;20017;-56
2023/05/27 09:21:55;;;;;;;4.35;1.83;;;6.70;99.90;;;;;;5075852;28;20029;-56
2023/05/27 09:24:26;;;;;;;2.70;1.60;;;6.60;99.90;;;;;;5050815;28;20412;-57
2023/05/27 09:26:55;;;;;;;3.50;1.60;;;6.50;99.90;;;;;;5074655;28;20030;-55
2023/05/27 09:29:26;;;;;;;4.60;1.92;;;6.30;99.90;;;;;;5093166;28;21336;-55
2023/05/27 09:31:57;;;;;;;2.90;1.45;;;6.20;99.90;;;;;;5072021;28;20032;-54
2023/05/27 09:34:29;;;;;;;4.68;1.90;;;6.10;99.90;;;;;;5076074;28;20024;-58
2023/05/27 09:36:57;;;;;;;3.78;2.30;;;6.10;99.90;;;;;;5079383;28;20888;-60
2023/05/27 09:39:24;;;;;;;3.58;1.45;;;6.00;99.90;;;;;;5067337;28;20024;-57
2023/05/27 09:41:55;;;;;;;4.18;1.58;;;5.90;99.90;;;;;;5070023;28;20036;-58
2023/05/27 09:44:32;;;;;;;5.75;1.80;;;5.80;99.90;;;;;;5079098;28;20020;-54
2023/05/27 09:47:02;;;;;;;7.22;1.77;;;5.70;99.90;;;;;;5074525;28;20019;-58
2023/05/27 09:49:32;;;;;;;4.18;2.55;;;5.60;99.90;;;;;;5073791;28;20034;-57
2023/05/27 09:52:01;;;;;;;5.75;2.10;;;5.50;99.90;;;;;;5046236;28;20036;-57
2023/05/27 09:54:30;;;;;;;4.07;2.03;;;5.50;99.90;;;;;;5049708;28;20354;-56
2023/05/27 09:56:59;;;;;;;5.00;2.33;;;5.40;99.90;;;;;;5080003;28;20501;-52
2023/05/27 09:59:27;;;;;;;7.50;2.63;;;5.40;99.90;;;;;;5078689;28;20058;-54
2023/05/27 10:01:55;;;;;;;7.88;2.42;;;5.30;99.90;;;;;;5067564;28;20405;-55
2023/05/27 10:04:23;;;;;;;5.95;2.65;;;5.30;99.90;;;;;;5083433;28;20047;-58
2023/05/27 10:06:51;;;;;;;5.15;1.88;;;5.30;99.90;;;;;;5076451;28;20021;-59
2023/05/27 10:09:18;;;;;;;5.03;2.13;;;5.30;99.90;;;;;;5085927;28;20027;-55
2023/05/27 10:11:47;;;;;;;3.25;1.42;;;5.30;99.90;;;;;;5062007;28;20039;-56
2023/05/27 10:14:15;;;;;;;7.53;2.20;;;5.20;99.90;;;;;;5086739;28;20024;-56
2023/05/27 10:16:55;;;;;;;3.15;1.23;;;5.10;99.90;;;;;;5083559;28;20043;-57
2023/05/27 10:19:23;;;;;;;4.25;1.83;;;5.00;99.90;;;;;;5076641;28;20393;-58
2023/05/27 10:21:54;;;;;;;2.45;1.30;;;4.90;99.90;;;;;;5078636;28;20028;-54
2023/05/27 10:24:33;;;;;;;2.47;1.50;;;4.90;99.90;;;;;;5087227;28;20025;-59
2023/05/27 10:27:02;;;;;;;4.68;1.60;;;4.90;99.90;;;;;;5071344;28;20602;-55
2023/05/27 10:29:37;;;;;;;4.78;1.85;;;4.90;99.90;;;;;;5087126;28;20107;-57
2023/05/27 10:32:05;;;;;;;5.25;1.55;;;4.80;99.90;;;;;;5058128;28;20085;-57
2023/05/27 10:34:46;;;;;;;3.90;1.75;;;4.80;99.90;;;;;;5060672;28;20035;-55
2023/05/27 10:37:21;;;;;;;4.40;2.67;;;4.80;99.90;;;;;;5066921;28;20055;-57
2023/05/27 10:39:58;;;;;;;4.00;1.98;;;4.80;99.90;;;;;;5086792;28;20020;-56
2023/05/27 10:42:27;;;;;;;5.07;2.80;;;4.80;99.90;;;;;;5054474;28;20129;-57
2023/05/27 10:45:10;;;;;;;7.30;3.25;;;4.70;99.90;;;;;;5083060;28;20024;-57
2023/05/27 10:47:39;;;;;;;6.00;2.92;;;4.70;99.90;;;;;;5060875;28;20028;-55
2023/05/27 10:50:14;;;;;;;6.13;3.05;;;4.70;99.90;;;;;;5086843;28;20032;-57
2023/05/27 10:52:42;;;;;;;8.68;3.85;;;4.70;99.90;;;;;;5059996;28;20049;-57
2023/05/27 10:55:10;;;;;;;9.38;3.33;;;4.70;99.90;;;;;;5048993;28;20036;-66
2023/05/27 10:57:38;;;;;;;6.95;2.65;;;4.80;99.90;;;;;;5049272;28;20040;-57
2023/05/27 11:00:09;;;;;;;4.45;2.25;;;4.80;99.90;;;;;;5070070;28;20094;-56
2023/05/27 11:02:39;;;;;;;5.40;2.38;;;4.80;99.90;;;;;;5078120;28;20043;-58
2023/05/27 11:05:11;;;;;;;4.18;2.20;;;4.80;99.90;;;;;;5061891;28;20624;-55
2023/05/27 11:07:40;;;;;;;6.68;2.55;;;4.80;99.90;;;;;;5084860;28;20143;-57
2023/05/27 11:10:10;;;;;;;3.22;1.50;;;4.80;99.90;;;;;;5080647;28;20020;-58
2023/05/27 11:12:37;;;;;;;4.18;2.10;;;4.80;99.90;;;;;;5070969;28;20148;-57
2023/05/27 11:15:05;;;;;;;3.25;1.75;;;4.80;99.90;;;;;;5061284;28;20035;-57
2023/05/27 11:17:33;;;;;;;5.43;2.05;;;4.80;99.90;;;;;;5075991;28;20035;-56
2023/05/27 11:20:05;;;;;;;5.13;1.95;;;4.80;99.90;;;;;;5072002;28;20025;-57
2023/05/27 11:22:34;;;;;;;3.65;1.50;;;4.80;99.90;;;;;;5081786;28;20040;-56
2023/05/27 11:25:03;;;;;;;4.70;2.10;;;4.80;99.90;;;;;;5059931;28;20119;-55
2023/05/27 11:27:38;;;;;;;4.72;2.58;;;4.70;99.90;;;;;;5073461;28;20021;-56
2023/05/27 11:30:11;;;;;;;3.42;2.05;;;4.70;99.90;;;;;;5076435;28;20485;-52
2023/05/27 11:32:40;;;;;;;5.65;3.17;;;4.70;99.90;;;;;;5058580;28;20029;-56
2023/05/27 11:35:18;;;;;;;4.38;2.53;;;4.70;99.90;;;;;;5076571;28;20473;-57
2023/05/27 11:37:57;;;;;;;4.05;2.20;;;4.60;99.90;;;;;;5076784;28;20127;-57
2023/05/27 11:40:24;;;;;;;4.78;3.03;;;4.50;99.90;;;;;;5085812;28;20058;-50
2023/05/27 11:42:52;;;;;;;6.35;3.03;;;4.50;99.90;;;;;;5055176;28;20544;-54
2023/05/27 11:45:22;;;;;;;7.32;3.35;;;4.50;99.90;;;;;;5078102;28;20416;-58
2023/05/27 11:47:50;;;;;;;8.60;4.57;;;4.50;99.90;;;;;;5059165;28;20033;-58
2023/05/27 11:50:19;;;;;;;7.65;3.60;;;4.50;99.90;;;;;;5081390;28;20032;-58
2023/05/27 11:52:57;;;;;;;8.00;3.33;;;4.60;99.90;;;;;;5075868;28;20117;-59
2023/05/27 11:55:25;;;;;;;6.07;3.20;;;4.60;99.90;;;;;;5073975;28;20024;-57
2023/05/27 11:57:52;;;;;;;6.47;2.90;;;4.60;99.90;;;;;;5082297;28;20032;-52
2023/05/27 12:00:20;;;;;;;6.43;3.20;;;4.50;99.90;;;;;;5076005;28;20047;-57
2023/05/27 12:02:48;;;;;;;6.10;2.22;;;4.50;99.90;;;;;;5079615;28;20147;-57
2023/05/27 12:05:16;;;;;;;5.95;3.40;;;4.50;99.90;;;;;;5076491;28;20024;-60
2023/05/27 12:07:44;;;;;;;6.18;3.15;;;4.50;99.90;;;;;;5073901;28;20072;-58
2023/05/27 12:10:11;;;;;;;15.50;3.50;;;4.60;99.90;;;;;;5079738;28;20032;-59
2023/05/27 12:12:41;;;;;;;11.38;4.05;;;4.60;99.90;;;;;;5082868;28;20032;-54
2023/05/27 12:15:09;;;;;;;6.78;2.97;;;4.50;99.90;;;;;;5063825;28;20036;-58
2023/05/27 12:17:36;;;;;;;6.38;2.35;;;4.40;99.90;;;;;;5079676;28;20073;-55
2023/05/27 12:20:06;;;;;;;7.28;2.75;;;4.30;99.90;;;;;;5074455;28;20028;-56
2023/05/27 12:22:33;;;;;;;7.93;2.63;;;4.30;99.90;;;;;;5085891;28;20032;-57
2023/05/27 12:25:01;;;;;;;8.50;3.00;;;4.20;99.90;;;;;;5074996;28;20077;-59
2023/05/27 12:27:29;;;;;;;5.60;2.50;;;4.20;99.90;;;;;;5061197;28;20769;-55
2023/05/27 12:29:56;;;;;;;6.47;2.22;;;4.20;99.90;;;;;;5068077;28;20040;-59
2023/05/27 12:32:24;;;;;;;6.20;2.25;;;4.20;99.90;;;;;;5071830;28;20032;-58
2023/05/27 12:34:52;;;;;;;4.13;1.98;;;4.20;99.90;;;;;;5084070;28;20074;-56
2023/05/27 12:37:19;;;;;;;5.53;1.83;;;4.20;99.90;;;;;;5058302;28;20530;-58
2023/05/27 12:39:47;;;;;;;2.53;1.52;;;4.30;99.90;;;;;;5083918;28;20017;-58
2023/05/27 12:42:15;;;;;;;4.20;1.33;;;4.30;99.90;;;;;;5073276;28;20059;-58
2023/05/27 12:44:42;;;;;;;2.92;1.50;;;4.30;99.90;;;;;;5084767;28;20089;-59
2023/05/27 12:47:10;;;;;;;5.97;1.15;;;4.20;99.90;;;;;;5067361;28;20803;-57
2023/05/27 12:49:38;;;;;;;2.88;1.38;;;4.20;99.90;;;;;;5071424;28;20055;-58
2023/05/27 12:52:06;;;;;;;3.30;1.38;;;4.10;99.90;;;;;;5089044;28;20051;-60
2023/05/27 12:54:33;;;;;;;5.20;1.38;;;4.10;99.90;;;;;;5070344;28;20825;-58
2023/05/27 12:57:04;;;;;;;3.65;2.05;;;4.00;99.90;;;;;;5062588;28;20710;-57
2023/05/27 12:59:33;;;;;;;7.45;2.35;;;4.00;99.90;;;;;;5070707;28;20081;-59